Time;durP1;ratioP1;P1;durP2;ratioP2;P2;SDS_P1;SDS_P2;PMS_P1;PMS_P2;Temp;Humidity;BMP_temperature;BMP_pressure;BME280_temperature;BME280_humidity;BME280_pressure;Samples;Min_cycle;Max_cycle;Signal;HPM_P1;HPM_P2
2022/01/14 00:01:50;;;;;;;6.68;3.22;;;-6.40;99.90;;;;;;5054859;28;20393;-73
2022/01/14 00:04:15;;;;;;;6.13;2.80;;;-6.40;99.90;;;;;;5055140;28;20024;-73
2022/01/14 00:06:41;;;;;;;5.35;2.88;;;-6.50;99.90;;;;;;5054842;28;20469;-73
2022/01/14 00:09:09;;;;;;;7.57;3.28;;;-6.50;99.90;;;;;;5055293;28;20028;-72
2022/01/14 00:11:43;;;;;;;5.95;3.05;;;-6.50;99.90;;;;;;5054864;28;20025;-73
2022/01/14 00:16:36;;;;;;;8.68;3.90;;;-6.50;99.90;;;;;;5054913;28;20024;-73
2022/01/14 00:19:02;;;;;;;10.05;4.15;;;-6.60;99.90;;;;;;5054573;28;20025;-73
2022/01/14 00:21:29;;;;;;;13.55;4.30;;;-6.60;99.90;;;;;;5053192;28;20025;-73
2022/01/14 00:24:06;;;;;;;9.10;4.18;;;-6.60;99.90;;;;;;5054348;28;20036;-73
2022/01/14 00:32:08;;;;;;;12.50;4.25;;;-6.60;99.90;;;;;;5054219;28;20572;-73
2022/01/14 00:34:33;;;;;;;11.55;4.53;;;-6.60;99.90;;;;;;5054326;28;20025;-73
2022/01/14 00:37:00;;;;;;;10.93;3.95;;;-6.60;99.90;;;;;;5054556;28;20021;-73
2022/01/14 00:39:26;;;;;;;6.80;3.45;;;-6.60;99.90;;;;;;5054192;28;20059;-73
2022/01/14 00:41:52;;;;;;;8.23;3.70;;;-6.60;99.90;;;;;;5054051;28;20017;-72
2022/01/14 00:44:19;;;;;;;8.95;3.63;;;-6.70;99.90;;;;;;5054330;28;20452;-73
2022/01/14 00:46:47;;;;;;;7.00;3.47;;;-6.70;99.90;;;;;;5054338;28;20032;-73
2022/01/14 00:49:14;;;;;;;6.13;3.28;;;-6.70;99.90;;;;;;5053275;28;20028;-73
2022/01/14 00:51:40;;;;;;;8.20;3.30;;;-6.70;99.90;;;;;;5053279;28;20467;-73
2022/01/14 00:54:07;;;;;;;8.40;3.45;;;-6.70;99.90;;;;;;5054039;28;20096;-73
2022/01/14 00:56:46;;;;;;;7.10;3.38;;;-6.70;99.90;;;;;;5054217;28;20108;-73
2022/01/14 00:59:14;;;;;;;7.57;3.40;;;-6.70;99.90;;;;;;5053987;28;20381;-73
2022/01/14 01:01:45;;;;;;;8.43;4.05;;;-6.70;99.90;;;;;;5053838;28;20539;-73
2022/01/14 01:04:13;;;;;;;12.38;4.68;;;-6.70;99.90;;;;;;5052630;28;20036;-73
2022/01/14 01:06:40;;;;;;;9.43;3.85;;;-6.70;99.90;;;;;;5054726;28;20029;-73
2022/01/14 01:09:10;;;;;;;9.85;3.65;;;-6.70;99.90;;;;;;5053417;28;20402;-73
2022/01/14 01:11:46;;;;;;;8.63;4.28;;;-6.70;99.90;;;;;;5053938;28;20028;-73
2022/01/14 01:14:20;;;;;;;7.10;3.10;;;-6.70;99.90;;;;;;5053981;28;20036;-73
2022/01/14 01:16:46;;;;;;;9.95;3.63;;;-6.70;99.90;;;;;;5054168;28;20147;-73
2022/01/14 01:19:12;;;;;;;5.43;3.25;;;-6.70;99.90;;;;;;5053558;28;20056;-73
2022/01/14 01:21:38;;;;;;;12.20;4.50;;;-6.70;99.90;;;;;;5053727;28;20032;-73
2022/01/14 01:24:04;;;;;;;16.77;5.55;;;-6.70;99.90;;;;;;5053328;28;20106;-73
2022/01/14 01:26:39;;;;;;;18.45;6.95;;;-6.80;99.90;;;;;;5053902;28;20473;-73
2022/01/14 01:31:41;;;;;;;12.55;5.03;;;-6.80;99.90;;;;;;5053487;28;20028;-73
2022/01/14 01:34:15;;;;;;;9.18;4.20;;;-6.80;99.90;;;;;;5053404;28;20045;-73
2022/01/14 01:36:45;;;;;;;8.32;3.03;;;-6.80;99.90;;;;;;5053629;28;20499;-73
2022/01/14 01:39:14;;;;;;;7.70;2.85;;;-6.80;99.90;;;;;;5051990;28;20495;-73
2022/01/14 01:41:45;;;;;;;9.38;3.90;;;-6.80;99.90;;;;;;5053494;28;20053;-72
2022/01/14 01:44:11;;;;;;;4.88;2.85;;;-6.80;99.90;;;;;;5053348;28;20542;-72
2022/01/14 01:46:40;;;;;;;9.55;3.80;;;-6.80;99.90;;;;;;5053395;28;20075;-73
2022/01/14 01:49:07;;;;;;;7.60;3.60;;;-6.80;99.90;;;;;;5053257;28;20028;-73
2022/01/14 01:51:34;;;;;;;7.63;3.42;;;-6.90;99.90;;;;;;5053720;28;20482;-72
2022/01/14 01:53:59;;;;;;;6.65;3.28;;;-7.00;99.90;;;;;;5053544;28;20029;-73
2022/01/14 01:56:25;;;;;;;8.23;3.80;;;-7.00;99.90;;;;;;5052063;28;20025;-72
2022/01/14 01:58:51;;;;;;;7.55;3.30;;;-7.00;99.90;;;;;;5053506;28;20029;-73
2022/01/14 02:01:17;;;;;;;8.77;3.35;;;-7.00;99.90;;;;;;5053691;28;20028;-73
2022/01/14 02:03:43;;;;;;;5.70;3.08;;;-7.00;99.90;;;;;;5053120;28;20053;-72
2022/01/14 02:06:09;;;;;;;7.22;2.45;;;-7.00;99.90;;;;;;5053562;28;20025;-73
2022/01/14 02:08:35;;;;;;;6.03;2.40;;;-7.00;99.90;;;;;;5053125;28;20029;-72
2022/01/14 02:11:01;;;;;;;5.75;2.72;;;-7.00;99.90;;;;;;5056482;28;20385;-72
2022/01/14 02:13:27;;;;;;;9.40;3.30;;;-7.00;99.90;;;;;;5057083;28;20018;-72
2022/01/14 02:18:31;;;;;;;7.85;2.90;;;-7.00;99.90;;;;;;5057005;28;20377;-72
2022/01/14 02:23:51;;;;;;;6.47;3.13;;;-7.10;99.90;;;;;;5056929;28;20467;-73
2022/01/14 02:26:18;;;;;;;6.75;3.47;;;-7.10;99.90;;;;;;5055517;28;20038;-73
2022/01/14 02:28:46;;;;;;;8.60;3.78;;;-7.10;99.90;;;;;;5056769;28;20021;-73
2022/01/14 02:31:12;;;;;;;5.70;2.88;;;-7.00;99.90;;;;;;5056642;28;20036;-73
2022/01/14 02:33:37;;;;;;;8.13;2.97;;;-7.00;99.90;;;;;;5056601;28;20021;-73
2022/01/14 02:36:05;;;;;;;8.63;3.28;;;-7.00;99.90;;;;;;5056593;28;20045;-73
2022/01/14 02:38:31;;;;;;;9.27;3.38;;;-7.00;99.90;;;;;;5056548;28;20021;-73
2022/01/14 02:40:57;;;;;;;8.55;3.00;;;-7.00;99.90;;;;;;5056393;28;20504;-73
2022/01/14 02:43:25;;;;;;;6.63;2.83;;;-7.00;99.90;;;;;;5056593;28;20025;-72
2022/01/14 02:45:53;;;;;;;7.45;2.90;;;-7.10;99.90;;;;;;5056291;28;20473;-72
2022/01/14 02:48:21;;;;;;;6.82;2.63;;;-7.10;99.90;;;;;;5054901;28;20029;-72
2022/01/14 02:51:02;;;;;;;6.45;2.90;;;-7.10;99.90;;;;;;5056104;28;20052;-72
2022/01/14 02:53:43;;;;;;;7.10;3.15;;;-7.10;99.90;;;;;;5056123;28;20509;-72
2022/01/14 02:56:12;;;;;;;8.27;3.05;;;-7.10;99.90;;;;;;5056186;28;20466;-72
2022/01/14 02:58:39;;;;;;;9.48;3.30;;;-7.00;99.90;;;;;;5054810;28;20025;-72
2022/01/14 03:01:18;;;;;;;10.82;3.53;;;-7.10;99.90;;;;;;5056368;28;20107;-72
2022/01/14 03:03:45;;;;;;;7.18;2.60;;;-7.10;99.90;;;;;;5054603;28;20036;-72
2022/01/14 03:06:12;;;;;;;6.88;2.97;;;-7.10;99.90;;;;;;5055937;28;20045;-72
2022/01/14 03:08:38;;;;;;;7.18;3.25;;;-7.00;99.90;;;;;;5055896;28;20065;-72
2022/01/14 03:11:14;;;;;;;5.22;2.75;;;-7.00;99.90;;;;;;5055808;28;20049;-72
2022/01/14 03:13:40;;;;;;;6.07;2.67;;;-7.10;99.90;;;;;;5056072;28;20017;-72
2022/01/14 03:16:07;;;;;;;8.75;3.78;;;-7.10;99.90;;;;;;5056049;28;20416;-72
2022/01/14 03:18:41;;;;;;;10.40;3.78;;;-7.00;99.90;;;;;;5056111;28;20096;-72
2022/01/14 03:21:14;;;;;;;8.15;3.55;;;-7.00;99.90;;;;;;5056302;28;20465;-75
2022/01/14 03:23:48;;;;;;;7.03;3.03;;;-7.10;99.90;;;;;;5055535;28;20123;-76
2022/01/14 03:26:16;;;;;;;9.07;3.55;;;-7.10;99.90;;;;;;5055881;28;20473;-75
2022/01/14 03:28:42;;;;;;;7.30;3.05;;;-7.10;99.90;;;;;;5055838;28;20025;-75
2022/01/14 03:31:09;;;;;;;8.50;2.95;;;-7.10;99.90;;;;;;5055690;28;20036;-76
2022/01/14 03:33:35;;;;;;;5.65;2.42;;;-7.10;99.90;;;;;;5055634;28;20432;-75
2022/01/14 03:36:02;;;;;;;4.57;2.20;;;-7.10;99.90;;;;;;5055908;28;20024;-76
2022/01/14 03:38:27;;;;;;;7.80;3.30;;;-7.10;99.90;;;;;;5055887;28;20029;-76
2022/01/14 03:40:53;;;;;;;6.20;2.92;;;-7.10;99.90;;;;;;5055512;28;20027;-76
2022/01/14 03:43:19;;;;;;;6.90;2.85;;;-7.10;99.90;;;;;;5054490;28;20121;-75
2022/01/14 03:45:45;;;;;;;7.25;2.85;;;-7.10;99.90;;;;;;5055344;28;20029;-76
2022/01/14 03:48:11;;;;;;;7.10;3.30;;;-7.00;99.90;;;;;;5055204;28;20021;-76
2022/01/14 03:50:37;;;;;;;21.30;7.22;;;-7.00;99.90;;;;;;5054313;28;20025;-75
2022/01/14 03:53:04;;;;;;;30.95;9.15;;;-7.10;99.90;;;;;;5055517;28;20029;-75
2022/01/14 03:55:30;;;;;;;33.88;8.82;;;-7.20;99.90;;;;;;5054247;28;20060;-76
2022/01/14 03:57:55;;;;;;;18.08;6.75;;;-7.30;99.90;;;;;;5055425;28;20034;-76
2022/01/14 04:00:22;;;;;;;23.23;7.43;;;-7.40;99.90;;;;;;5056455;28;20025;-76
2022/01/14 04:02:48;;;;;;;28.83;9.70;;;-7.40;99.90;;;;;;5055241;28;20035;-75
2022/01/14 04:05:14;;;;;;;29.25;9.88;;;-7.50;99.90;;;;;;5055335;28;20029;-76
2022/01/14 04:07:41;;;;;;;25.23;9.95;;;-7.40;99.90;;;;;;5054968;28;20071;-76
2022/01/14 04:10:10;;;;;;;26.80;8.20;;;-7.40;99.90;;;;;;5054695;28;20021;-75
2022/01/14 04:12:56;;;;;;;17.55;6.30;;;-7.40;99.90;;;;;;5054763;28;20025;-75
2022/01/14 04:15:37;;;;;;;21.73;6.22;;;-7.30;99.90;;;;;;5054973;28;20021;-75
2022/01/14 04:18:17;;;;;;;16.33;4.93;;;-7.30;99.90;;;;;;5055112;28;20029;-75
2022/01/14 04:20:45;;;;;;;13.73;4.70;;;-7.30;99.90;;;;;;5054874;28;20029;-75
2022/01/14 04:23:12;;;;;;;14.02;5.22;;;-7.30;99.90;;;;;;5054447;28;20036;-75
2022/01/14 04:25:38;;;;;;;11.45;3.90;;;-7.30;99.90;;;;;;5054616;28;20033;-75
2022/01/14 04:28:05;;;;;;;6.93;3.30;;;-7.30;99.90;;;;;;5053270;28;20029;-75
2022/01/14 04:30:32;;;;;;;10.13;3.95;;;-7.30;99.90;;;;;;5053173;28;20025;-75
2022/01/14 04:32:58;;;;;;;6.75;3.67;;;-7.30;99.90;;;;;;5053351;28;20043;-75
2022/01/14 04:35:25;;;;;;;7.63;3.25;;;-7.30;99.90;;;;;;5054634;28;20017;-75
2022/01/14 04:37:50;;;;;;;7.80;2.92;;;-7.30;99.90;;;;;;5054350;28;20024;-75
2022/01/14 04:40:16;;;;;;;6.35;2.38;;;-7.30;99.90;;;;;;5054792;28;20413;-75
2022/01/14 04:42:43;;;;;;;6.32;2.63;;;-7.30;99.90;;;;;;5054020;28;20033;-75
2022/01/14 04:45:11;;;;;;;6.63;2.47;;;-7.20;99.90;;;;;;5054187;28;20016;-75
2022/01/14 04:47:46;;;;;;;8.40;2.67;;;-7.20;99.90;;;;;;5054292;28;20492;-75
2022/01/14 04:50:14;;;;;;;5.03;2.30;;;-7.20;99.90;;;;;;5054419;28;20416;-75
2022/01/14 04:52:40;;;;;;;4.63;2.35;;;-7.20;99.90;;;;;;5053356;28;20078;-75
2022/01/14 04:55:08;;;;;;;5.53;2.50;;;-7.20;99.90;;;;;;5052966;28;20020;-76
2022/01/14 04:57:34;;;;;;;5.57;2.70;;;-7.20;99.90;;;;;;5053918;28;20024;-76
2022/01/14 04:59:59;;;;;;;7.38;2.50;;;-7.20;99.90;;;;;;5053969;28;20099;-76
2022/01/14 05:02:26;;;;;;;4.13;2.10;;;-7.30;99.90;;;;;;5054678;28;20021;-75
2022/01/14 05:04:54;;;;;;;6.13;2.88;;;-7.40;99.90;;;;;;5056143;28;20028;-75
2022/01/14 05:07:25;;;;;;;4.75;2.20;;;-7.40;99.90;;;;;;5054849;28;20028;-75
2022/01/14 05:12:28;;;;;;;6.53;2.42;;;-7.40;99.90;;;;;;5055175;28;20025;-75
2022/01/14 05:14:54;;;;;;;6.18;2.55;;;-7.40;99.90;;;;;;5053298;28;20033;-75
2022/01/14 05:17:20;;;;;;;6.32;2.60;;;-7.30;99.90;;;;;;5054032;28;20136;-75
2022/01/14 05:19:46;;;;;;;4.78;2.50;;;-7.30;99.90;;;;;;5054412;28;20025;-75
2022/01/14 05:22:12;;;;;;;4.78;2.65;;;-7.30;99.90;;;;;;5054407;28;20033;-75
2022/01/14 05:24:38;;;;;;;5.90;2.60;;;-7.30;99.90;;;;;;5053820;28;20041;-75
2022/01/14 05:27:04;;;;;;;5.60;2.40;;;-7.30;99.90;;;;;;5055025;28;20033;-75
2022/01/14 05:29:30;;;;;;;5.32;2.85;;;-7.30;99.90;;;;;;5055343;28;20083;-75
2022/01/14 05:32:02;;;;;;;5.70;2.80;;;-7.40;99.90;;;;;;5052293;28;20420;-74
2022/01/14 05:34:30;;;;;;;17.00;7.43;;;-7.40;99.90;;;;;;5053306;28;20016;-75
2022/01/14 05:36:56;;;;;;;61.63;17.65;;;-7.40;99.90;;;;;;5053655;28;20462;-74
2022/01/14 05:39:23;;;;;;;91.05;30.65;;;-7.40;99.90;;;;;;5053200;28;20021;-74
2022/01/14 05:41:49;;;;;;;80.20;27.75;;;-7.50;99.90;;;;;;5052214;28;20025;-73
2022/01/14 05:44:15;;;;;;;71.78;24.90;;;-7.50;99.90;;;;;;5051881;28;20029;-74
2022/01/14 05:46:41;;;;;;;58.80;21.05;;;-7.50;99.90;;;;;;5052214;28;20028;-74
2022/01/14 05:49:06;;;;;;;50.58;16.17;;;-7.50;99.90;;;;;;5051990;28;20025;-74
2022/01/14 05:51:32;;;;;;;26.63;9.60;;;-7.50;99.90;;;;;;5053149;28;20028;-73
2022/01/14 05:53:58;;;;;;;20.10;6.95;;;-7.50;99.90;;;;;;5053531;28;20025;-74
2022/01/14 05:56:24;;;;;;;17.73;6.57;;;-7.50;99.90;;;;;;5053269;28;20017;-74
2022/01/14 05:58:50;;;;;;;12.13;4.53;;;-7.60;99.90;;;;;;5053270;28;20023;-74
2022/01/14 06:01:15;;;;;;;7.53;2.95;;;-7.50;99.90;;;;;;5053338;28;20036;-74
2022/01/14 06:03:41;;;;;;;6.40;3.10;;;-7.50;99.90;;;;;;5053346;28;20075;-74
2022/01/14 06:06:07;;;;;;;4.95;2.38;;;-7.50;99.90;;;;;;5052230;28;20381;-74
2022/01/14 06:08:32;;;;;;;5.20;2.55;;;-7.50;99.90;;;;;;5053205;28;20056;-74
2022/01/14 06:10:59;;;;;;;5.47;2.20;;;-7.40;99.90;;;;;;5053267;28;20104;-74
2022/01/14 06:13:25;;;;;;;5.20;2.20;;;-7.50;99.90;;;;;;5053140;28;20441;-74
2022/01/14 06:15:50;;;;;;;6.35;2.60;;;-7.50;99.90;;;;;;5053388;28;20097;-74
2022/01/14 06:18:16;;;;;;;3.95;1.95;;;-7.50;99.90;;;;;;5053147;28;20072;-74
2022/01/14 06:20:42;;;;;;;4.95;2.45;;;-7.50;99.90;;;;;;5053008;28;20027;-74
2022/01/14 06:23:08;;;;;;;8.70;3.53;;;-7.40;99.90;;;;;;5052954;28;20021;-74
2022/01/14 06:25:34;;;;;;;4.28;1.98;;;-7.40;99.90;;;;;;5053639;28;20493;-74
2022/01/14 06:28:00;;;;;;;3.40;1.90;;;-7.40;99.90;;;;;;5052985;28;20025;-74
2022/01/14 06:30:25;;;;;;;3.58;2.08;;;-7.40;99.90;;;;;;5052915;28;20021;-74
2022/01/14 06:32:52;;;;;;;4.95;2.20;;;-7.40;99.90;;;;;;5052865;28;20452;-74
2022/01/14 06:35:18;;;;;;;4.82;2.58;;;-7.40;99.90;;;;;;5052981;28;20477;-74
2022/01/14 06:37:44;;;;;;;7.00;2.42;;;-7.40;99.90;;;;;;5052789;28;20022;-74
2022/01/14 06:40:10;;;;;;;5.75;2.55;;;-7.40;99.90;;;;;;5052840;28;20025;-74
2022/01/14 06:42:36;;;;;;;7.90;3.25;;;-7.40;99.90;;;;;;5051495;28;20535;-74
2022/01/14 06:45:05;;;;;;;9.40;3.88;;;-7.40;99.90;;;;;;5053206;28;20033;-74
2022/01/14 06:47:30;;;;;;;9.57;4.05;;;-7.40;99.90;;;;;;5053153;28;20462;-74
2022/01/14 06:49:56;;;;;;;10.85;4.68;;;-7.40;99.90;;;;;;5052962;28;20036;-74
2022/01/14 06:52:22;;;;;;;13.52;5.05;;;-7.50;99.90;;;;;;5051450;28;20021;-73
2022/01/14 06:54:48;;;;;;;9.30;4.80;;;-7.50;99.90;;;;;;5052730;28;20025;-74
2022/01/14 06:57:15;;;;;;;8.45;3.35;;;-7.50;99.90;;;;;;5054552;28;20382;-74
2022/01/14 06:59:41;;;;;;;8.57;2.83;;;-7.50;99.90;;;;;;5056277;28;20055;-74
2022/01/14 07:02:06;;;;;;;5.55;2.80;;;-7.50;99.90;;;;;;5056108;28;20075;-74
2022/01/14 07:04:33;;;;;;;5.45;2.60;;;-7.40;99.90;;;;;;5057123;28;20033;-74
2022/01/14 07:06:59;;;;;;;3.70;2.10;;;-7.40;99.90;;;;;;5056095;28;20040;-74
2022/01/14 07:09:25;;;;;;;7.35;2.90;;;-7.40;99.90;;;;;;5056016;28;20029;-74
2022/01/14 07:11:57;;;;;;;8.50;2.70;;;-7.40;99.90;;;;;;5056106;28;20079;-73
2022/01/14 07:14:24;;;;;;;5.32;2.80;;;-7.50;99.90;;;;;;5056079;28;20017;-74
2022/01/14 07:16:50;;;;;;;8.38;3.10;;;-7.50;99.90;;;;;;5056250;28;20025;-74
2022/01/14 07:19:17;;;;;;;7.35;3.30;;;-7.50;99.90;;;;;;5055927;28;20435;-74
2022/01/14 07:21:43;;;;;;;8.45;3.45;;;-7.50;99.90;;;;;;5055802;28;20032;-74
2022/01/14 07:24:10;;;;;;;7.25;3.95;;;-7.50;99.90;;;;;;5054393;28;20398;-74
2022/01/14 07:26:36;;;;;;;10.18;4.93;;;-7.40;99.90;;;;;;5055888;28;20079;-74
2022/01/14 07:29:02;;;;;;;11.07;5.10;;;-7.40;99.90;;;;;;5054825;28;20452;-74
2022/01/14 07:31:27;;;;;;;9.13;5.18;;;-7.50;99.90;;;;;;5055587;28;20032;-74
2022/01/14 07:33:53;;;;;;;9.90;4.82;;;-7.50;99.90;;;;;;5055557;28;20021;-74
2022/01/14 07:36:19;;;;;;;13.13;5.07;;;-7.40;99.90;;;;;;5055779;28;20029;-74
2022/01/14 07:38:45;;;;;;;10.20;4.78;;;-7.40;99.90;;;;;;5055566;28;20031;-74
2022/01/14 07:41:10;;;;;;;9.93;4.40;;;-7.40;99.90;;;;;;5054198;28;20025;-74
2022/01/14 07:43:36;;;;;;;8.48;4.30;;;-7.30;99.90;;;;;;5055324;28;20055;-74
2022/01/14 07:46:03;;;;;;;7.32;4.18;;;-7.30;99.90;;;;;;5055353;28;20104;-74
2022/01/14 07:48:29;;;;;;;12.25;4.82;;;-7.30;99.90;;;;;;5055240;28;20061;-74
2022/01/14 07:50:55;;;;;;;9.98;4.57;;;-7.30;99.90;;;;;;5055300;28;20055;-74
2022/01/14 07:53:21;;;;;;;11.40;5.03;;;-7.30;99.90;;;;;;5055278;28;20545;-74
2022/01/14 07:55:46;;;;;;;15.68;4.60;;;-7.20;99.90;;;;;;5055082;28;20395;-74
2022/01/14 07:58:13;;;;;;;11.25;5.68;;;-7.20;99.90;;;;;;5055745;28;20572;-74
2022/01/14 08:00:39;;;;;;;15.32;5.70;;;-7.10;99.90;;;;;;5053838;28;20044;-74
2022/01/14 08:03:05;;;;;;;10.90;4.78;;;-7.20;99.90;;;;;;5055142;28;20543;-74
2022/01/14 08:05:31;;;;;;;12.48;5.55;;;-7.20;99.90;;;;;;5054910;28;20036;-74
2022/01/14 08:08:03;;;;;;;10.95;3.78;;;-7.10;99.90;;;;;;5054875;28;20020;-74
2022/01/14 08:10:28;;;;;;;20.65;9.52;;;-7.10;99.90;;;;;;5054817;28;20047;-74
2022/01/14 08:12:54;;;;;;;25.67;10.20;;;-7.10;99.90;;;;;;5054961;28;20021;-74
2022/01/14 08:15:20;;;;;;;28.40;11.63;;;-7.10;99.90;;;;;;5055287;28;20025;-74
2022/01/14 08:17:46;;;;;;;8.40;3.75;;;-7.10;99.90;;;;;;5054730;28;20021;-74
2022/01/14 08:20:12;;;;;;;10.02;5.03;;;-7.00;99.90;;;;;;5053476;28;20101;-74
2022/01/14 08:22:38;;;;;;;18.17;9.20;;;-7.00;99.90;;;;;;5054925;28;20424;-74
2022/01/14 08:25:04;;;;;;;19.23;10.95;;;-7.00;99.90;;;;;;5054780;28;20083;-74
2022/01/14 08:27:29;;;;;;;11.20;5.70;;;-7.00;99.90;;;;;;5055025;28;20123;-74
2022/01/14 08:29:55;;;;;;;12.45;5.13;;;-6.90;99.90;;;;;;5054589;28;20498;-74
2022/01/14 08:32:22;;;;;;;8.40;4.03;;;-6.90;99.90;;;;;;5054130;28;20025;-73
2022/01/14 08:34:48;;;;;;;9.30;4.65;;;-6.80;99.90;;;;;;5054777;28;20485;-74
2022/01/14 08:37:14;;;;;;;13.27;6.03;;;-6.80;99.90;;;;;;5054611;28;20374;-74
2022/01/14 08:39:40;;;;;;;18.88;7.70;;;-6.80;99.90;;;;;;5054316;28;20025;-74
2022/01/14 08:42:08;;;;;;;17.58;8.23;;;-6.70;99.90;;;;;;5054486;28;20032;-73
2022/01/14 08:44:36;;;;;;;15.15;6.40;;;-6.70;99.90;;;;;;5054201;28;20031;-74
2022/01/14 08:47:04;;;;;;;15.00;6.50;;;-6.60;99.90;;;;;;5054176;28;20075;-74
2022/01/14 08:49:30;;;;;;;13.43;5.90;;;-6.50;99.90;;;;;;5054386;28;20107;-74
2022/01/14 08:51:56;;;;;;;10.57;4.80;;;-6.40;99.90;;;;;;5053996;28;20097;-73
2022/01/14 08:54:22;;;;;;;14.60;5.50;;;-6.40;99.90;;;;;;5054520;28;20048;-74
2022/01/14 08:56:48;;;;;;;13.02;5.15;;;-6.30;99.90;;;;;;5054120;28;20017;-74
2022/01/14 08:59:17;;;;;;;14.27;5.95;;;-6.30;99.90;;;;;;5054025;28;20087;-74
2022/01/14 09:01:44;;;;;;;13.25;6.22;;;-6.20;99.90;;;;;;5053917;28;20385;-74
2022/01/14 09:04:10;;;;;;;10.23;4.72;;;-6.20;99.90;;;;;;5052663;28;20109;-74
2022/01/14 09:06:36;;;;;;;9.40;4.20;;;-6.10;99.90;;;;;;5054238;28;20051;-74
2022/01/14 09:09:02;;;;;;;10.02;4.22;;;-6.10;99.90;;;;;;5053807;28;20021;-74
2022/01/14 09:11:28;;;;;;;9.77;4.30;;;-6.00;99.90;;;;;;5053917;28;20028;-74
2022/01/14 09:13:53;;;;;;;11.35;4.72;;;-6.00;99.90;;;;;;5052358;28;20029;-74
2022/01/14 09:16:20;;;;;;;10.73;4.80;;;-5.90;99.90;;;;;;5053745;28;20017;-74
2022/01/14 09:18:47;;;;;;;9.55;5.47;;;-5.90;99.90;;;;;;5053144;28;20358;-74
2022/01/14 09:21:14;;;;;;;10.80;4.85;;;-5.80;99.90;;;;;;5054053;28;20034;-74
2022/01/14 09:23:40;;;;;;;13.18;6.70;;;-5.70;99.90;;;;;;5052599;28;20036;-71
2022/01/14 09:26:05;;;;;;;9.98;5.05;;;-5.70;99.90;;;;;;5053485;28;20033;-71
2022/01/14 09:28:33;;;;;;;10.27;4.45;;;-5.60;99.90;;;;;;5053500;28;20037;-71
2022/01/14 09:30:59;;;;;;;9.13;5.20;;;-5.60;99.90;;;;;;5053326;28;20029;-71
2022/01/14 09:33:24;;;;;;;12.52;4.78;;;-5.50;99.90;;;;;;5053326;28;20025;-71
2022/01/14 09:35:50;;;;;;;11.80;5.05;;;-5.50;99.90;;;;;;5053552;28;20055;-71
2022/01/14 09:38:17;;;;;;;14.57;6.18;;;-5.40;99.90;;;;;;5053518;28;20029;-71
2022/01/14 09:40:47;;;;;;;12.13;5.40;;;-5.30;99.90;;;;;;5053617;28;20047;-71
2022/01/14 09:43:13;;;;;;;9.15;5.38;;;-5.20;99.90;;;;;;5053210;28;20017;-71
2022/01/14 09:45:39;;;;;;;13.02;5.55;;;-5.10;99.90;;;;;;5053512;28;20100;-71
2022/01/14 09:48:05;;;;;;;13.13;5.28;;;-5.00;99.90;;;;;;5053219;28;20104;-71
2022/01/14 09:50:31;;;;;;;15.93;5.60;;;-4.90;99.90;;;;;;5053112;28;20029;-71
2022/01/14 09:52:56;;;;;;;14.65;5.78;;;-4.80;99.90;;;;;;5053109;28;20088;-71
2022/01/14 09:55:26;;;;;;;12.20;6.22;;;-4.70;99.90;;;;;;5053145;28;20496;-71
2022/01/14 09:57:54;;;;;;;10.38;5.75;;;-4.60;99.90;;;;;;5053077;28;20025;-71
2022/01/14 10:00:21;;;;;;;16.52;5.95;;;-4.50;99.90;;;;;;5053366;28;20021;-71
2022/01/14 10:02:47;;;;;;;10.00;5.30;;;-4.40;99.90;;;;;;5053031;28;20504;-71
2022/01/14 10:05:39;;;;;;;22.13;9.25;;;-4.30;99.90;;;;;;5053312;28;20017;-71
2022/01/14 10:08:27;;;;;;;18.58;8.45;;;-4.20;99.90;;;;;;5053397;28;20021;-71
2022/01/14 10:10:59;;;;;;;17.17;7.53;;;-4.10;99.90;;;;;;5053247;28;20021;-71
2022/01/14 10:13:30;;;;;;;24.38;8.30;;;-4.00;99.90;;;;;;5052940;28;20043;-71
2022/01/14 10:16:07;;;;;;;18.80;7.10;;;-3.90;99.90;;;;;;5053069;28;20100;-71
2022/01/14 10:18:34;;;;;;;14.52;6.38;;;-3.80;99.90;;;;;;5052956;28;20053;-72
2022/01/14 10:21:06;;;;;;;25.00;7.25;;;-3.70;99.90;;;;;;5052935;28;20033;-72
2022/01/14 10:23:44;;;;;;;14.00;6.65;;;-3.60;99.90;;;;;;5052695;28;20091;-72
2022/01/14 10:26:11;;;;;;;15.48;7.18;;;-3.50;99.90;;;;;;5051516;28;20087;-71
2022/01/14 10:28:37;;;;;;;12.45;6.68;;;-3.50;99.90;;;;;;5052824;28;20075;-72
2022/01/14 10:31:04;;;;;;;13.63;6.22;;;-3.40;99.90;;;;;;5054696;28;20025;-72
2022/01/14 10:33:30;;;;;;;13.57;6.00;;;-3.40;99.90;;;;;;5056526;28;20020;-72
2022/01/14 10:35:56;;;;;;;14.45;6.30;;;-3.30;99.90;;;;;;5056614;28;20021;-72
2022/01/14 10:38:24;;;;;;;15.15;6.03;;;-3.20;99.90;;;;;;5056522;28;20465;-71
2022/01/14 10:40:56;;;;;;;20.55;7.50;;;-3.10;99.90;;;;;;5057016;28;20021;-71
2022/01/14 10:43:31;;;;;;;22.38;7.38;;;-3.10;99.90;;;;;;5056419;28;20473;-72
2022/01/14 10:45:57;;;;;;;29.38;8.93;;;-3.00;99.90;;;;;;5056465;28;20032;-72
2022/01/14 10:48:30;;;;;;;28.60;9.82;;;-2.90;99.90;;;;;;5056682;28;20143;-72
2022/01/14 10:50:58;;;;;;;28.45;8.07;;;-2.90;99.90;;;;;;5055018;28;20032;-72
2022/01/14 10:53:32;;;;;;;28.45;8.27;;;-2.90;99.90;;;;;;5056351;28;20021;-72
2022/01/14 10:56:01;;;;;;;21.83;8.85;;;-2.80;99.90;;;;;;5056406;28;20036;-72
2022/01/14 10:58:36;;;;;;;17.60;8.88;;;-2.70;99.90;;;;;;5056190;28;20492;-72
2022/01/14 11:01:15;;;;;;;20.55;8.23;;;-2.60;99.90;;;;;;5056339;28;20036;-72
2022/01/14 11:03:52;;;;;;;25.75;9.82;;;-2.50;99.90;;;;;;5056558;28;20051;-72
2022/01/14 11:06:28;;;;;;;22.60;10.70;;;-2.40;99.90;;;;;;5056722;28;20047;-72
2022/01/14 11:08:58;;;;;;;23.02;11.40;;;-2.40;99.90;;;;;;5056557;28;20021;-72
2022/01/14 11:11:25;;;;;;;21.33;10.55;;;-2.30;99.90;;;;;;5056188;28;20455;-72
2022/01/14 11:13:51;;;;;;;21.33;10.43;;;-2.20;99.90;;;;;;5055954;28;20071;-72
2022/01/14 11:16:17;;;;;;;19.35;10.20;;;-2.10;99.90;;;;;;5055854;28;20489;-72
2022/01/14 11:18:45;;;;;;;23.50;10.65;;;-2.00;99.90;;;;;;5055994;28;20053;-72
2022/01/14 11:23:55;;;;;;;24.45;10.85;;;-1.90;99.90;;;;;;5055868;28;20075;-73
2022/01/14 11:26:27;;;;;;;26.67;11.35;;;-1.80;99.90;;;;;;5055922;28;20028;-72
2022/01/14 11:28:53;;;;;;;21.63;10.05;;;-1.70;99.90;;;;;;5056101;28;20027;-73
2022/01/14 11:31:35;;;;;;;22.38;9.50;;;-1.70;99.90;;;;;;5054397;28;20029;-72
2022/01/14 11:34:03;;;;;;;18.80;8.88;;;-1.50;99.90;;;;;;5054309;28;20031;-72
2022/01/14 11:36:52;;;;;;;17.40;8.38;;;-1.50;99.90;;;;;;5055489;28;20017;-72
2022/01/14 11:39:28;;;;;;;23.67;10.05;;;-1.40;99.90;;;;;;5055785;28;20021;-72
2022/01/14 11:41:56;;;;;;;20.75;10.27;;;-1.30;99.90;;;;;;5053396;28;20029;-72
2022/01/14 11:44:44;;;;;;;21.08;10.27;;;-1.30;99.90;;;;;;5055316;28;20028;-72
2022/01/14 11:47:44;;;;;;;19.85;9.90;;;-1.10;99.90;;;;;;5055312;28;20032;-73
2022/01/14 11:50:19;;;;;;;23.65;10.27;;;-1.10;99.90;;;;;;5051976;28;20090;-72
2022/01/14 11:52:46;;;;;;;22.13;10.43;;;-0.90;99.90;;;;;;5055043;28;20036;-72
2022/01/14 11:55:24;;;;;;;24.45;10.20;;;-0.80;99.90;;;;;;5053849;28;20029;-73
2022/01/14 11:58:06;;;;;;;22.77;10.80;;;-0.70;99.90;;;;;;5055040;28;20021;-72
2022/01/14 12:00:38;;;;;;;28.77;11.40;;;-0.50;99.90;;;;;;5055329;28;20070;-72
2022/01/14 12:03:13;;;;;;;21.20;11.57;;;-0.40;99.90;;;;;;5055260;28;20096;-73
2022/01/14 12:05:53;;;;;;;18.75;10.23;;;-0.40;99.90;;;;;;5054900;28;20477;-72
2022/01/14 12:08:24;;;;;;;15.35;9.00;;;-0.30;99.90;;;;;;5054871;28;20021;-73
2022/01/14 12:10:51;;;;;;;;;;;-0.20;99.90;;;;;;5055435;28;20025;-73
2022/01/14 12:13:28;;;;;;;16.13;8.85;;;-0.20;99.90;;;;;;5054578;28;19927;-72
2022/01/14 12:16:01;;;;;;;15.35;8.40;;;-0.10;99.90;;;;;;5072122;28;20035;-73
2022/01/14 12:18:57;;;;;;;15.95;9.02;;;-0.10;99.90;;;;;;5077196;28;20024;-73
2022/01/14 12:21:41;;;;;;;14.77;8.98;;;0.00;99.90;;;;;;5067903;28;20091;-72
2022/01/14 12:24:18;;;;;;;19.52;9.23;;;0.10;99.90;;;;;;5057035;28;20029;-72
2022/01/14 12:27:08;;;;;;;19.05;8.70;;;0.10;99.90;;;;;;5063243;28;20059;-72
2022/01/14 12:29:36;;;;;;;14.60;8.32;;;0.20;99.90;;;;;;5069533;28;20031;-72
2022/01/14 12:32:07;;;;;;;13.52;7.85;;;0.30;99.90;;;;;;5074194;28;20028;-72
2022/01/14 12:34:37;;;;;;;12.25;7.32;;;0.30;99.90;;;;;;5069525;28;20409;-72
2022/01/14 12:37:04;;;;;;;10.80;6.18;;;0.40;99.90;;;;;;5063673;28;20112;-72
2022/01/14 12:39:31;;;;;;;15.48;7.85;;;0.50;99.90;;;;;;5065596;28;20524;-73
2022/01/14 12:41:58;;;;;;;16.38;8.85;;;0.60;99.90;;;;;;5063130;28;20112;-72
2022/01/14 12:44:25;;;;;;;21.05;11.48;;;0.80;99.90;;;;;;5062469;28;20063;-72
2022/01/14 12:47:01;;;;;;;23.38;11.90;;;0.90;99.90;;;;;;5069764;28;20154;-72
2022/01/14 12:49:32;;;;;;;25.95;11.98;;;0.90;99.90;;;;;;5056552;28;20075;-72
2022/01/14 12:52:07;;;;;;;21.83;11.98;;;1.00;99.90;;;;;;5068508;28;20035;-72
2022/01/14 12:54:35;;;;;;;28.08;12.75;;;1.10;99.90;;;;;;5057127;28;20104;-73
2022/01/14 12:57:02;;;;;;;25.10;12.25;;;1.10;99.90;;;;;;5089189;28;20484;-73
2022/01/14 12:59:36;;;;;;;24.40;12.80;;;1.20;99.90;;;;;;5092528;28;20468;-73
2022/01/14 13:02:02;;;;;;;24.15;13.00;;;1.20;99.90;;;;;;5060411;28;20059;-72
2022/01/14 13:04:28;;;;;;;25.67;13.20;;;1.20;99.90;;;;;;5078186;28;20039;-73
2022/01/14 13:06:56;;;;;;;27.88;14.18;;;1.20;99.90;;;;;;5092849;28;20023;-73
2022/01/14 13:09:30;;;;;;;28.30;15.45;;;1.20;99.90;;;;;;5094244;28;20035;-73